Time;durP1;ratioP1;P1;durP2;ratioP2;P2;SDS_P1;SDS_P2;PMS_P1;PMS_P2;Temp;Humidity;BMP_temperature;BMP_pressure;BME280_temperature;BME280_humidity;BME280_pressure;Samples;Min_cycle;Max_cycle;Signal;HPM_P1;HPM_P2
2021/12/27 14:38:57;;;;;;;56.35;24.35;;;;;;;-6.92;90.07;100241.35;1769805;79;23254;-58
2021/12/27 14:41:23;;;;;;;52.20;28.57;;;;;;;-6.85;90.17;100240.36;1738941;81;21537;-59
2021/12/27 14:43:50;;;;;;;40.90;21.00;;;;;;;-6.57;89.68;100235.34;1742486;80;21871;-59
2021/12/27 14:46:17;;;;;;;37.85;20.10;;;;;;;-6.39;89.18;100239.84;1727263;81;21585;-59
2021/12/27 14:48:44;;;;;;;37.48;19.48;;;;;;;-6.22;88.87;100231.89;1736106;79;21510;-58
2021/12/27 14:51:12;;;;;;;30.00;18.73;;;;;;;-6.03;88.44;100235.94;1727626;81;21720;-60
2021/12/27 14:53:39;;;;;;;33.92;17.80;;;;;;;-5.85;88.10;100245.90;1733634;81;21443;-60
2021/12/27 14:56:05;;;;;;;37.53;20.12;;;;;;;-5.73;87.52;100248.84;1736002;80;21802;-58
2021/12/27 14:58:32;;;;;;;36.40;18.73;;;;;;;-5.62;87.36;100249.20;1723889;81;21537;-61
2021/12/27 15:01:06;;;;;;;32.98;18.32;;;;;;;-5.52;87.08;100245.70;1730547;81;21506;-55
2021/12/27 15:03:30;;;;;;;31.12;18.65;;;;;;;-5.42;86.87;100252.41;1734706;81;21447;-56
2021/12/27 15:05:56;;;;;;;29.65;16.57;;;;;;;-5.29;86.62;100253.24;1729049;81;21073;-56
2021/12/27 15:08:24;;;;;;;30.68;16.57;;;;;;;-5.14;86.36;100262.68;1733700;81;22015;-58
2021/12/27 15:10:53;;;;;;;32.23;17.12;;;;;;;-5.03;86.00;100262.98;1737457;80;21542;-58
2021/12/27 15:13:20;;;;;;;36.42;17.23;;;;;;;-4.96;85.66;100264.05;1735493;80;21422;-58
2021/12/27 15:15:48;;;;;;;31.93;17.15;;;;;;;-4.90;85.57;100261.66;1730524;80;21667;-59
2021/12/27 15:18:15;;;;;;;28.17;15.98;;;;;;;-4.82;85.20;100258.92;1737585;81;21569;-59
2021/12/27 15:20:41;;;;;;;35.50;16.90;;;;;;;-4.73;85.11;100257.02;1730527;81;21724;-59
2021/12/27 15:23:08;;;;;;;33.47;17.20;;;;;;;-4.66;84.75;100256.79;1733325;80;21522;-57
2021/12/27 15:25:35;;;;;;;34.65;18.85;;;;;;;-4.65;84.63;100258.13;1728775;81;21598;-60
2021/12/27 15:28:01;;;;;;;32.23;17.45;;;;;;;-4.63;84.56;100260.31;1737790;80;21712;-56
2021/12/27 15:30:30;;;;;;;25.45;16.37;;;;;;;-4.61;84.41;100259.08;1727657;81;21438;-60
2021/12/27 15:32:57;;;;;;;31.73;15.78;;;;;;;-4.69;84.26;100256.27;1738315;80;21560;-55
2021/12/27 15:35:25;;;;;;;28.25;16.07;;;;;;;-4.71;83.91;100254.97;1738701;81;21006;-58
2021/12/27 15:37:53;;;;;;;;;;;;;;;-4.67;84.09;100259.78;1743012;81;21609;-54
2021/12/27 15:40:19;;;;;;;;;;;;;;;-4.67;83.53;100266.58;1733162;81;20129;-53
2021/12/27 15:42:49;;;;;;;29.30;15.65;;;;;;;-4.67;83.15;100261.45;1734533;81;20437;-55
2021/12/27 15:45:17;;;;;;;29.75;16.93;;;;;;;-4.69;83.20;100266.53;1728474;81;21724;-58
2021/12/27 15:47:44;;;;;;;26.97;15.90;;;;;;;-4.70;83.02;100262.25;1735911;81;21494;-60
2021/12/27 15:50:11;;;;;;;27.27;16.02;;;;;;;-4.68;82.89;100261.02;1729742;81;21456;-59
2021/12/27 15:52:38;;;;;;;28.17;15.43;;;;;;;-4.73;82.77;100264.71;1730577;81;21565;-58
2021/12/27 15:55:06;;;;;;;28.67;15.35;;;;;;;-4.78;82.81;100269.73;1725753;81;21679;-57
2021/12/27 15:57:32;;;;;;;25.70;15.38;;;;;;;-4.78;82.73;100266.30;1728406;80;21837;-57
2021/12/27 16:00:03;;;;;;;27.65;15.32;;;;;;;-4.73;82.62;100264.71;1731769;81;21420;-54
2021/12/27 16:02:32;;;;;;;26.77;15.05;;;;;;;-4.67;82.37;100253.36;1731551;80;21565;-57
2021/12/27 16:04:59;;;;;;;28.30;16.17;;;;;;;-4.64;82.03;100253.85;1734834;80;21471;-57
2021/12/27 16:07:26;;;;;;;26.57;16.50;;;;;;;-4.56;81.95;100260.95;1724706;81;21544;-58
2021/12/27 16:09:53;;;;;;;28.32;15.60;;;;;;;-4.51;81.77;100259.78;1734803;81;22089;-56
2021/12/27 16:12:19;;;;;;;28.70;15.40;;;;;;;-4.54;81.70;100254.55;1730306;81;21625;-57
2021/12/27 16:14:46;;;;;;;20.92;12.78;;;;;;;-4.65;81.51;100260.69;1726657;81;21486;-56
2021/12/27 16:17:12;;;;;;;18.52;12.63;;;;;;;-4.70;81.58;100263.53;1735933;81;21412;-57
2021/12/27 16:19:39;;;;;;;22.40;12.75;;;;;;;-4.62;81.48;100261.18;1739213;80;21083;-54
2021/12/27 16:22:06;;;;;;;23.92;12.95;;;;;;;-4.57;80.73;100261.77;1729524;80;22148;-56
2021/12/27 16:24:40;;;;;;;19.73;13.48;;;;;;;-4.58;80.70;100261.72;1730866;80;21537;-56
2021/12/27 16:27:02;;;;;;;21.93;13.45;;;;;;;-4.55;80.63;100272.94;1733468;81;21447;-56
2021/12/27 16:29:32;;;;;;;18.95;11.88;;;;;;;-4.54;80.54;100268.67;1722359;81;21577;-58
2021/12/27 16:31:59;;;;;;;19.52;11.88;;;;;;;-4.53;80.34;100271.70;1712954;81;21516;-56
2021/12/27 16:34:26;;;;;;;17.85;10.93;;;;;;;-4.61;79.90;100275.34;1731220;81;21754;-55
2021/12/27 16:36:53;;;;;;;16.25;10.43;;;;;;;-4.73;80.09;100277.16;1724777;81;21081;-57
2021/12/27 16:39:19;;;;;;;18.70;11.08;;;;;;;-4.75;80.28;100267.23;1726417;80;21483;-57
2021/12/27 16:41:46;;;;;;;17.97;10.77;;;;;;;-4.84;80.28;100270.84;1732049;80;21508;-57
2021/12/27 16:44:13;;;;;;;23.80;9.38;;;;;;;-4.84;80.28;100270.84;1732796;80;21045;-57
2021/12/27 16:46:40;;;;;;;18.70;12.07;;;;;;;-4.87;80.16;100267.31;1737077;80;21840;-57
2021/12/27 16:49:07;;;;;;;20.50;11.43;;;;;;;-4.93;80.18;100267.58;1728165;80;21569;-58
2021/12/27 16:51:35;;;;;;;17.45;11.25;;;;;;;-4.90;80.26;100262.55;1735699;80;21553;-59
2021/12/27 16:54:03;;;;;;;;;;;;;;;-4.87;80.16;100260.47;1732855;80;21526;-57
2021/12/27 16:56:31;;;;;;;16.10;10.15;;;;;;;-4.83;80.04;100262.72;1735853;81;20416;-57
2021/12/27 16:58:57;;;;;;;14.63;10.40;;;;;;;-4.78;80.09;100264.59;1734477;80;21511;-58
2021/12/27 17:01:25;;;;;;;13.60;9.15;;;;;;;-4.74;79.81;100260.42;1738493;80;27036;-57
2021/12/27 17:03:54;;;;;;;12.85;8.60;;;;;;;-4.83;79.38;100267.43;1732559;80;22124;-58
2021/12/27 17:06:21;;;;;;;11.90;7.75;;;;;;;-4.92;79.62;100264.17;1728531;80;21593;-57
2021/12/27 17:08:48;;;;;;;14.35;8.93;;;;;;;-4.86;79.68;100262.62;1734716;80;21561;-57
2021/12/27 17:11:16;;;;;;;13.90;9.48;;;;;;;-4.80;79.51;100270.09;1730148;80;21760;-58
2021/12/27 17:13:44;;;;;;;15.53;9.23;;;;;;;-4.82;79.32;100273.03;1728872;80;21594;-57
2021/12/27 17:16:15;;;;;;;18.35;11.25;;;;;;;-4.79;79.41;100282.08;1732241;80;28789;-57
2021/12/27 17:18:39;;;;;;;14.63;9.40;;;;;;;-4.81;79.17;100282.45;1731818;80;21559;-58
2021/12/27 17:21:07;;;;;;;19.17;11.30;;;;;;;-4.80;79.25;100288.45;1731767;80;21551;-57
2021/12/27 17:23:33;;;;;;;16.50;10.53;;;;;;;-4.81;79.02;100287.58;1742396;81;21784;-57
2021/12/27 17:26:00;;;;;;;13.40;9.90;;;;;;;-4.94;79.09;100295.74;1731811;80;21518;-58
2021/12/27 17:28:26;;;;;;;13.98;9.65;;;;;;;-5.07;79.37;100286.80;1736142;80;21505;-58
2021/12/27 17:30:53;;;;;;;16.90;10.78;;;;;;;-5.06;79.57;100289.84;1733088;80;21570;-58
2021/12/27 17:33:21;;;;;;;18.75;10.08;;;;;;;-5.14;79.48;100287.43;1729231;80;21068;-57
2021/12/27 17:35:49;;;;;;;17.42;11.08;;;;;;;-5.17;79.82;100289.50;1731555;80;21898;-57
2021/12/27 17:38:16;;;;;;;16.63;10.30;;;;;;;-5.15;79.84;100290.41;1730111;81;21582;-58
2021/12/27 17:40:42;;;;;;;16.40;9.95;;;;;;;-5.16;80.00;100292.53;1718830;81;21589;-57
2021/12/27 17:43:10;;;;;;;17.00;10.90;;;;;;;-5.10;80.13;100289.29;1718439;81;21411;-57
2021/12/27 17:45:36;;;;;;;15.48;10.78;;;;;;;-5.05;79.94;100285.15;1715949;80;21089;-58
2021/12/27 17:48:05;;;;;;;17.47;11.80;;;;;;;-4.98;79.90;100293.49;1716938;80;21593;-57
2021/12/27 17:50:32;;;;;;;15.95;10.93;;;;;;;-4.94;79.83;100287.63;1714260;80;21463;-57
2021/12/27 17:53:01;;;;;;;17.05;10.85;;;;;;;-4.93;79.81;100281.69;1718309;80;21050;-58
2021/12/27 17:55:27;;;;;;;16.50;10.85;;;;;;;-4.99;79.73;100282.80;1719034;80;20975;-59
2021/12/27 17:57:54;;;;;;;20.12;12.23;;;;;;;-5.02;79.85;100275.00;1709103;82;21006;-57
2021/12/27 18:00:21;;;;;;;20.20;11.83;;;;;;;-5.07;79.88;100281.67;1719288;80;22044;-57
2021/12/27 18:02:48;;;;;;;23.15;13.40;;;;;;;-5.06;80.12;100277.44;1725683;81;21582;-56
2021/12/27 18:05:16;;;;;;;;;;;;;;;-5.05;79.97;100286.85;1712590;81;21542;-56
2021/12/27 18:07:43;;;;;;;19.98;11.75;;;;;;;-5.13;80.12;100284.92;1721786;82;20459;-55
2021/12/27 18:10:11;;;;;;;19.77;11.60;;;;;;;-5.11;80.34;100278.14;1718011;82;21507;-56
2021/12/27 18:12:38;;;;;;;;;;;;;;;-5.04;80.24;100281.77;1722682;81;21678;-57
2021/12/27 18:15:08;;;;;;;19.62;12.28;;;;;;;-5.01;80.31;100275.86;1716792;81;20451;-57
2021/12/27 18:17:36;;;;;;;18.52;12.20;;;;;;;-4.97;80.12;100271.27;1726080;80;21534;-55
2021/12/27 18:20:05;;;;;;;;;;;;;;;-4.96;79.92;100276.45;1728503;81;21479;-58
2021/12/27 18:22:31;;;;;;;19.27;13.40;;;;;;;-4.95;79.86;100278.63;1721384;81;20534;-56
2021/12/27 18:24:58;;;;;;;19.17;12.18;;;;;;;-5.02;79.77;100280.55;1717750;81;22033;-58
2021/12/27 18:27:25;;;;;;;19.30;12.68;;;;;;;-5.06;80.07;100282.56;1725465;81;21493;-59
2021/12/27 18:29:51;;;;;;;18.37;12.00;;;;;;;-5.05;80.13;100281.72;1726842;81;21604;-58
2021/12/27 18:32:18;;;;;;;20.50;12.78;;;;;;;-5.05;80.00;100284.29;1721726;81;21488;-55
2021/12/27 18:34:46;;;;;;;22.70;13.20;;;;;;;-5.07;80.27;100282.09;1717817;81;21558;-57
2021/12/27 18:37:13;;;;;;;20.75;13.25;;;;;;;-5.08;80.20;100290.20;1717776;82;21810;-56
2021/12/27 18:39:40;;;;;;;18.20;12.43;;;;;;;-5.09;80.18;100291.02;1723084;81;21510;-59
2021/12/27 18:42:07;;;;;;;24.98;13.45;;;;;;;-5.10;80.50;100290.15;1731262;80;21502;-58
2021/12/27 18:44:34;;;;;;;20.05;13.45;;;;;;;-5.12;80.25;100285.39;1733883;81;21470;-58
2021/12/27 18:47:01;;;;;;;21.30;13.00;;;;;;;-5.17;80.54;100284.37;1730562;80;21692;-58
2021/12/27 18:49:27;;;;;;;17.30;12.00;;;;;;;-5.11;80.61;100284.55;1726892;80;22014;-54
2021/12/27 18:51:54;;;;;;;17.80;12.13;;;;;;;-5.04;80.64;100283.48;1731529;81;21045;-54
2021/12/27 18:54:21;;;;;;;12.58;9.38;;;;;;;-5.02;79.96;100290.80;1740325;80;21466;-55
2021/12/27 18:56:50;;;;;;;17.50;13.10;;;;;;;-5.10;80.06;100290.58;1741517;80;21494;-55
2021/12/27 18:59:18;;;;;;;17.90;11.55;;;;;;;-5.16;80.17;100288.69;1732499;81;21585;-55
2021/12/27 19:01:46;;;;;;;19.55;11.97;;;;;;;-5.19;80.44;100286.02;1730673;81;22226;-54
2021/12/27 19:04:13;;;;;;;;;;;;;;;-5.18;80.52;100288.16;1726224;81;21553;-54
2021/12/27 19:06:39;;;;;;;17.70;11.43;;;;;;;-5.20;80.29;100292.38;1733498;81;20545;-54
2021/12/27 19:09:09;;;;;;;16.55;11.65;;;;;;;-5.21;80.53;100296.64;1722671;81;21827;-56
2021/12/27 19:11:36;;;;;;;20.43;12.80;;;;;;;-5.16;80.65;100295.48;1733420;80;21574;-55
2021/12/27 19:14:03;;;;;;;19.37;12.27;;;;;;;-5.16;80.54;100290.36;1725110;81;22290;-56
2021/12/27 19:16:30;;;;;;;17.98;12.58;;;;;;;-5.15;80.59;100282.72;1734209;81;21098;-55
2021/12/27 19:18:57;;;;;;;26.37;13.83;;;;;;;-5.11;80.69;100275.57;1733135;81;21605;-58
2021/12/27 19:21:23;;;;;;;20.02;13.08;;;;;;;-5.02;80.78;100278.84;1731988;80;21247;-58
2021/12/27 19:23:50;;;;;;;20.13;13.20;;;;;;;-5.03;80.30;100279.66;1732385;80;21436;-59
2021/12/27 19:26:17;;;;;;;21.17;12.82;;;;;;;-5.06;80.46;100283.84;1733278;81;21903;-56
2021/12/27 19:28:44;;;;;;;20.75;14.23;;;;;;;-5.09;80.11;100285.88;1732817;80;21466;-57
2021/12/27 19:31:12;;;;;;;23.05;14.43;;;;;;;-5.16;80.21;100282.28;1749230;80;21428;-58
2021/12/27 19:33:41;;;;;;;20.45;12.82;;;;;;;-5.20;80.50;100282.12;1743548;80;21491;-55
2021/12/27 19:36:07;;;;;;;19.45;13.30;;;;;;;-5.16;80.41;100281.39;1736433;80;21412;-56
2021/12/27 19:38:34;;;;;;;12.90;9.08;;;;;;;-5.23;80.23;100276.50;1736703;81;21782;-56
2021/12/27 19:41:01;;;;;;;16.30;12.10;;;;;;;-5.22;80.27;100279.92;1729657;81;21502;-56
2021/12/27 19:43:28;;;;;;;18.73;13.38;;;;;;;-5.18;80.22;100276.62;1728788;80;21636;-57
2021/12/27 19:45:54;;;;;;;19.10;13.53;;;;;;;-5.14;80.08;100287.05;1727145;80;21514;-58
2021/12/27 19:48:21;;;;;;;20.80;13.78;;;;;;;-5.13;80.00;100286.20;1734357;80;21497;-54
2021/12/27 19:50:48;;;;;;;23.47;13.50;;;;;;;-5.17;79.68;100278.38;1735592;81;21902;-55
2021/12/27 19:53:15;;;;;;;18.48;13.05;;;;;;;-5.21;79.82;100284.24;1729918;80;22189;-55
2021/12/27 19:55:42;;;;;;;20.87;13.23;;;;;;;-5.18;79.93;100284.31;1725615;81;21557;-55
2021/12/27 19:58:09;;;;;;;21.75;13.13;;;;;;;-5.24;79.60;100287.56;1733667;81;21500;-56
